sensor_id;sensor_type;location;lat;lon;timestamp;pressure;altitude;pressure_sealevel;temperature;humidity
72096;BME280;59968;51.084;16.748;2023-09-30T00:02:58;100408.73;;;20.71;65.44
72096;BME280;59968;51.084;16.748;2023-09-30T00:05:28;100408.98;;;20.73;65.38
72096;BME280;59968;51.084;16.748;2023-09-30T00:07:57;100411.14;;;20.73;65.03
72096;BME280;59968;51.084;16.748;2023-09-30T00:10:25;100415.39;;;20.76;64.53
72096;BME280;59968;51.084;16.748;2023-09-30T00:12:53;100416.36;;;20.79;64.51
72096;BME280;59968;51.084;16.748;2023-09-30T00:15:21;100418.02;;;20.83;64.76
72096;BME280;59968;51.084;16.748;2023-09-30T00:17:50;100415.04;;;20.86;64.80
72096;BME280;59968;51.084;16.748;2023-09-30T00:20:18;100409.43;;;20.84;65.06
72096;BME280;59968;51.084;16.748;2023-09-30T00:22:47;100418.17;;;20.90;64.83
72096;BME280;59968;51.084;16.748;2023-09-30T00:25:15;100418.25;;;20.93;64.70
72096;BME280;59968;51.084;16.748;2023-09-30T00:27:43;100419.63;;;20.94;64.52
72096;BME280;59968;51.084;16.748;2023-09-30T00:30:12;100424.70;;;20.98;64.27
72096;BME280;59968;51.084;16.748;2023-09-30T00:32:41;100424.41;;;21.01;64.19
72096;BME280;59968;51.084;16.748;2023-09-30T00:35:09;100424.90;;;21.02;64.19
72096;BME280;59968;51.084;16.748;2023-09-30T00:37:40;100423.63;;;21.03;64.01
72096;BME280;59968;51.084;16.748;2023-09-30T00:40:10;100423.31;;;21.06;64.03
72096;BME280;59968;51.084;16.748;2023-09-30T00:42:42;100420.89;;;21.07;63.99
72096;BME280;59968;51.084;16.748;2023-09-30T00:45:10;100420.95;;;21.08;63.69
72096;BME280;59968;51.084;16.748;2023-09-30T00:47:39;100423.92;;;21.10;63.68
72096;BME280;59968;51.084;16.748;2023-09-30T00:50:10;100428.38;;;21.14;63.55
72096;BME280;59968;51.084;16.748;2023-09-30T00:52:40;100429.52;;;21.17;63.73
72096;BME280;59968;51.084;16.748;2023-09-30T00:55:09;100434.02;;;21.20;63.57
72096;BME280;59968;51.084;16.748;2023-09-30T00:57:39;100433.44;;;21.23;63.39
72096;BME280;59968;51.084;16.748;2023-09-30T01:00:08;100433.14;;;21.25;63.29
72096;BME280;59968;51.084;16.748;2023-09-30T01:02:41;100437.12;;;21.29;63.18
72096;BME280;59968;51.084;16.748;2023-09-30T01:05:10;100435.39;;;21.33;62.77
72096;BME280;59968;51.084;16.748;2023-09-30T01:07:38;100434.77;;;21.36;62.97
72096;BME280;59968;51.084;16.748;2023-09-30T01:10:07;100427.00;;;21.34;62.84
72096;BME280;59968;51.084;16.748;2023-09-30T01:12:36;100439.52;;;21.43;62.87
72096;BME280;59968;51.084;16.748;2023-09-30T01:15:05;100440.16;;;21.45;62.88
72096;BME280;59968;51.084;16.748;2023-09-30T01:17:35;100444.66;;;21.47;62.94
72096;BME280;59968;51.084;16.748;2023-09-30T01:20:06;100446.79;;;21.51;62.86
72096;BME280;59968;51.084;16.748;2023-09-30T01:22:36;100447.33;;;21.54;63.11
72096;BME280;59968;51.084;16.748;2023-09-30T01:25:06;100448.76;;;21.57;63.02
72096;BME280;59968;51.084;16.748;2023-09-30T01:27:34;100448.00;;;21.63;62.99
72096;BME280;59968;51.084;16.748;2023-09-30T01:30:03;100441.73;;;21.66;63.05
72096;BME280;59968;51.084;16.748;2023-09-30T01:32:32;100443.11;;;21.70;62.97
72096;BME280;59968;51.084;16.748;2023-09-30T01:35:00;100451.05;;;21.73;63.05
72096;BME280;59968;51.084;16.748;2023-09-30T01:37:29;100453.02;;;21.74;63.20
72096;BME280;59968;51.084;16.748;2023-09-30T01:39:57;100452.27;;;21.74;63.34
72096;BME280;59968;51.084;16.748;2023-09-30T01:42:26;100454.79;;;21.73;63.30
72096;BME280;59968;51.084;16.748;2023-09-30T01:44:55;100458.27;;;21.71;63.39
72096;BME280;59968;51.084;16.748;2023-09-30T01:47:25;100462.70;;;21.70;63.33
72096;BME280;59968;51.084;16.748;2023-09-30T01:49:53;100465.82;;;21.69;63.45
72096;BME280;59968;51.084;16.748;2023-09-30T01:52:24;100470.58;;;21.69;63.62
72096;BME280;59968;51.084;16.748;2023-09-30T01:54:52;100470.77;;;21.68;63.82
72096;BME280;59968;51.084;16.748;2023-09-30T01:57:25;100471.23;;;21.66;64.10
72096;BME280;59968;51.084;16.748;2023-09-30T01:59:54;100473.55;;;21.64;64.23
72096;BME280;59968;51.084;16.748;2023-09-30T02:02:23;100474.30;;;21.65;64.28
72096;BME280;59968;51.084;16.748;2023-09-30T02:04:52;100469.45;;;21.66;64.43
72096;BME280;59968;51.084;16.748;2023-09-30T02:07:22;100468.39;;;21.68;64.50
72096;BME280;59968;51.084;16.748;2023-09-30T02:09:51;100466.02;;;21.68;64.57
72096;BME280;59968;51.084;16.748;2023-09-30T02:12:19;100470.39;;;21.68;64.42
72096;BME280;59968;51.084;16.748;2023-09-30T02:14:47;100467.39;;;21.69;64.41
72096;BME280;59968;51.084;16.748;2023-09-30T02:17:16;100462.54;;;21.67;64.56
72096;BME280;59968;51.084;16.748;2023-09-30T02:19:45;100460.31;;;21.68;64.48
72096;BME280;59968;51.084;16.748;2023-09-30T02:22:13;100463.54;;;21.67;64.48
72096;BME280;59968;51.084;16.748;2023-09-30T02:24:42;100463.27;;;21.67;64.74
72096;BME280;59968;51.084;16.748;2023-09-30T02:27:10;100466.48;;;21.66;64.67
72096;BME280;59968;51.084;16.748;2023-09-30T02:29:39;100470.70;;;21.64;64.82
72096;BME280;59968;51.084;16.748;2023-09-30T02:32:08;100471.86;;;21.65;65.02
72096;BME280;59968;51.084;16.748;2023-09-30T02:34:37;100472.24;;;21.65;65.02
72096;BME280;59968;51.084;16.748;2023-09-30T02:37:07;100476.40;;;21.63;65.04
72096;BME280;59968;51.084;16.748;2023-09-30T02:39:35;100476.13;;;21.61;64.97
72096;BME280;59968;51.084;16.748;2023-09-30T02:42:05;100481.81;;;21.58;65.16
72096;BME280;59968;51.084;16.748;2023-09-30T02:44:33;100486.70;;;21.55;65.16
72096;BME280;59968;51.084;16.748;2023-09-30T02:47:02;100486.24;;;21.55;65.14
72096;BME280;59968;51.084;16.748;2023-09-30T02:49:33;100482.70;;;21.54;65.05
72096;BME280;59968;51.084;16.748;2023-09-30T02:52:01;100483.80;;;21.55;64.88
72096;BME280;59968;51.084;16.748;2023-09-30T02:54:31;100479.25;;;21.51;65.11
72096;BME280;59968;51.084;16.748;2023-09-30T02:56:59;100479.23;;;21.50;65.02
72096;BME280;59968;51.084;16.748;2023-09-30T02:59:28;100473.94;;;21.46;65.02
72096;BME280;59968;51.084;16.748;2023-09-30T03:01:56;100473.61;;;21.43;65.16
72096;BME280;59968;51.084;16.748;2023-09-30T03:04:24;100480.80;;;21.38;65.30
72096;BME280;59968;51.084;16.748;2023-09-30T03:06:55;100486.57;;;21.32;65.33
72096;BME280;59968;51.084;16.748;2023-09-30T03:09:26;100487.21;;;21.25;65.31
72096;BME280;59968;51.084;16.748;2023-09-30T03:11:54;100493.95;;;21.20;65.48
72096;BME280;59968;51.084;16.748;2023-09-30T03:14:27;100504.09;;;21.16;65.89
72096;BME280;59968;51.084;16.748;2023-09-30T03:16:58;100501.72;;;21.09;65.88
72096;BME280;59968;51.084;16.748;2023-09-30T03:19:27;100499.85;;;21.03;66.19
72096;BME280;59968;51.084;16.748;2023-09-30T03:21:56;100506.44;;;20.97;66.23
72096;BME280;59968;51.084;16.748;2023-09-30T03:24:24;100504.77;;;20.92;66.44
72096;BME280;59968;51.084;16.748;2023-09-30T03:26:53;100506.15;;;20.86;66.62
72096;BME280;59968;51.084;16.748;2023-09-30T03:29:21;100512.73;;;20.79;66.64
72096;BME280;59968;51.084;16.748;2023-09-30T03:31:50;100511.97;;;20.71;66.76
72096;BME280;59968;51.084;16.748;2023-09-30T03:34:18;100520.66;;;20.64;66.98
72096;BME280;59968;51.084;16.748;2023-09-30T03:36:48;100521.41;;;20.61;67.17
72096;BME280;59968;51.084;16.748;2023-09-30T03:39:17;100521.88;;;20.58;67.14
72096;BME280;59968;51.084;16.748;2023-09-30T03:41:55;100526.71;;;20.57;67.25
72096;BME280;59968;51.084;16.748;2023-09-30T03:44:24;100530.12;;;20.55;67.37
72096;BME280;59968;51.084;16.748;2023-09-30T03:46:52;100539.34;;;20.50;67.67
72096;BME280;59968;51.084;16.748;2023-09-30T03:49:21;100537.26;;;20.48;67.50
72096;BME280;59968;51.084;16.748;2023-09-30T03:51:49;100537.85;;;20.48;67.55
72096;BME280;59968;51.084;16.748;2023-09-30T03:54:19;100539.41;;;20.48;67.71
72096;BME280;59968;51.084;16.748;2023-09-30T03:56:47;100547.78;;;20.47;67.48
72096;BME280;59968;51.084;16.748;2023-09-30T03:59:16;100552.48;;;20.43;67.90
72096;BME280;59968;51.084;16.748;2023-09-30T04:01:44;100551.02;;;20.35;68.59
72096;BME280;59968;51.084;16.748;2023-09-30T04:04:13;100553.30;;;20.27;69.07
72096;BME280;59968;51.084;16.748;2023-09-30T04:06:42;100555.48;;;20.21;69.24
72096;BME280;59968;51.084;16.748;2023-09-30T04:09:10;100549.52;;;20.17;69.61
72096;BME280;59968;51.084;16.748;2023-09-30T04:11:39;100550.01;;;20.14;69.81
72096;BME280;59968;51.084;16.748;2023-09-30T04:14:10;100554.61;;;20.10;70.05
72096;BME280;59968;51.084;16.748;2023-09-30T04:16:38;100552.89;;;20.07;70.23
72096;BME280;59968;51.084;16.748;2023-09-30T04:19:07;100561.20;;;20.04;70.20
72096;BME280;59968;51.084;16.748;2023-09-30T04:21:38;100570.27;;;20.01;70.32
72096;BME280;59968;51.084;16.748;2023-09-30T04:24:07;100583.94;;;20.01;70.39
72096;BME280;59968;51.084;16.748;2023-09-30T04:26:35;100585.49;;;20.00;70.71
72096;BME280;59968;51.084;16.748;2023-09-30T04:29:05;100585.52;;;19.98;70.95
72096;BME280;59968;51.084;16.748;2023-09-30T04:31:33;100582.02;;;19.97;71.09
72096;BME280;59968;51.084;16.748;2023-09-30T04:34:01;100580.66;;;19.93;71.38
72096;BME280;59968;51.084;16.748;2023-09-30T04:36:31;100586.59;;;19.91;71.34
72096;BME280;59968;51.084;16.748;2023-09-30T04:39:00;100587.58;;;19.83;71.84
72096;BME280;59968;51.084;16.748;2023-09-30T04:41:29;100594.81;;;19.81;72.03
72096;BME280;59968;51.084;16.748;2023-09-30T04:43:57;100596.96;;;19.79;72.07
72096;BME280;59968;51.084;16.748;2023-09-30T04:46:26;100597.09;;;19.78;72.47
72096;BME280;59968;51.084;16.748;2023-09-30T04:48:54;100602.77;;;19.78;72.36
72096;BME280;59968;51.084;16.748;2023-09-30T04:51:23;100600.73;;;19.79;72.15
72096;BME280;59968;51.084;16.748;2023-09-30T04:53:53;100599.75;;;19.81;72.16
72096;BME280;59968;51.084;16.748;2023-09-30T04:56:23;100607.02;;;19.83;72.22
72096;BME280;59968;51.084;16.748;2023-09-30T04:58:51;100611.79;;;19.86;72.11
72096;BME280;59968;51.084;16.748;2023-09-30T05:01:20;100616.61;;;19.81;72.33
72096;BME280;59968;51.084;16.748;2023-09-30T05:03:49;100622.84;;;19.80;72.74
72096;BME280;59968;51.084;16.748;2023-09-30T05:06:17;100626.58;;;19.78;72.82
72096;BME280;59968;51.084;16.748;2023-09-30T05:08:46;100632.39;;;19.77;72.82
72096;BME280;59968;51.084;16.748;2023-09-30T05:11:15;100630.59;;;19.76;72.94
72096;BME280;59968;51.084;16.748;2023-09-30T05:13:45;100631.89;;;19.75;73.20
72096;BME280;59968;51.084;16.748;2023-09-30T05:16:13;100633.16;;;19.76;73.27
72096;BME280;59968;51.084;16.748;2023-09-30T05:18:42;100630.24;;;19.75;73.53
72096;BME280;59968;51.084;16.748;2023-09-30T05:21:11;100632.77;;;19.74;73.50
72096;BME280;59968;51.084;16.748;2023-09-30T05:23:39;100644.20;;;19.79;73.39
72096;BME280;59968;51.084;16.748;2023-09-30T05:26:08;100653.44;;;19.80;73.66
72096;BME280;59968;51.084;16.748;2023-09-30T05:28:36;100664.02;;;19.80;73.74
72096;BME280;59968;51.084;16.748;2023-09-30T05:31:05;100669.27;;;19.79;73.88
72096;BME280;59968;51.084;16.748;2023-09-30T05:33:34;100675.27;;;19.79;74.09
72096;BME280;59968;51.084;16.748;2023-09-30T05:36:04;100684.45;;;19.80;74.11
72096;BME280;59968;51.084;16.748;2023-09-30T05:38:33;100690.27;;;19.89;73.79
72096;BME280;59968;51.084;16.748;2023-09-30T05:41:02;100696.42;;;19.88;74.25
72096;BME280;59968;51.084;16.748;2023-09-30T05:43:32;100702.70;;;19.85;74.15
72096;BME280;59968;51.084;16.748;2023-09-30T05:46:00;100707.19;;;19.70;73.52
72096;BME280;59968;51.084;16.748;2023-09-30T05:48:29;100717.31;;;19.60;73.30
72096;BME280;59968;51.084;16.748;2023-09-30T05:50:58;100714.18;;;19.51;73.06
72096;BME280;59968;51.084;16.748;2023-09-30T05:53:28;100719.79;;;19.47;72.77
72096;BME280;59968;51.084;16.748;2023-09-30T05:55:57;100723.17;;;19.40;72.38
72096;BME280;59968;51.084;16.748;2023-09-30T05:58:26;100721.36;;;19.31;72.26
72096;BME280;59968;51.084;16.748;2023-09-30T06:00:54;100725.83;;;19.23;72.35
72096;BME280;59968;51.084;16.748;2023-09-30T06:03:23;100725.48;;;19.17;72.36
72096;BME280;59968;51.084;16.748;2023-09-30T06:05:52;100735.08;;;19.13;72.38
72096;BME280;59968;51.084;16.748;2023-09-30T06:08:22;100732.38;;;19.04;72.36
72096;BME280;59968;51.084;16.748;2023-09-30T06:10:51;100734.02;;;19.00;72.49
72096;BME280;59968;51.084;16.748;2023-09-30T06:13:24;100742.95;;;18.96;72.41
72096;BME280;59968;51.084;16.748;2023-09-30T06:15:53;100746.95;;;18.92;72.43
72096;BME280;59968;51.084;16.748;2023-09-30T06:18:22;100750.60;;;18.87;72.39
72096;BME280;59968;51.084;16.748;2023-09-30T06:20:51;100753.18;;;18.83;71.70
72096;BME280;59968;51.084;16.748;2023-09-30T06:23:20;100755.41;;;18.79;71.85
72096;BME280;59968;51.084;16.748;2023-09-30T06:25:49;100764.85;;;18.75;71.95
72096;BME280;59968;51.084;16.748;2023-09-30T06:28:20;100771.42;;;18.65;71.93
72096;BME280;59968;51.084;16.748;2023-09-30T06:30:56;100780.38;;;18.57;71.82
72096;BME280;59968;51.084;16.748;2023-09-30T06:33:25;100789.63;;;18.50;71.80
72096;BME280;59968;51.084;16.748;2023-09-30T06:35:58;100796.00;;;18.43;72.09
72096;BME280;59968;51.084;16.748;2023-09-30T06:38:30;100802.64;;;18.33;72.31
72096;BME280;59968;51.084;16.748;2023-09-30T06:40:59;100805.00;;;18.32;72.44
72096;BME280;59968;51.084;16.748;2023-09-30T06:43:28;100809.83;;;18.30;72.41
72096;BME280;59968;51.084;16.748;2023-09-30T06:45:56;100809.88;;;18.28;72.18
72096;BME280;59968;51.084;16.748;2023-09-30T06:48:26;100813.77;;;18.26;71.60
72096;BME280;59968;51.084;16.748;2023-09-30T06:50:56;100820.39;;;18.24;70.71
72096;BME280;59968;51.084;16.748;2023-09-30T06:53:25;100825.89;;;18.21;70.15
72096;BME280;59968;51.084;16.748;2023-09-30T06:55:55;100828.54;;;18.14;69.75
72096;BME280;59968;51.084;16.748;2023-09-30T06:58:24;100833.42;;;18.12;69.70
72096;BME280;59968;51.084;16.748;2023-09-30T07:00:53;100833.02;;;18.08;69.26
72096;BME280;59968;51.084;16.748;2023-09-30T07:03:24;100837.39;;;18.06;69.31
72096;BME280;59968;51.084;16.748;2023-09-30T07:05:55;100839.79;;;18.05;69.33
72096;BME280;59968;51.084;16.748;2023-09-30T07:08:25;100838.95;;;18.03;69.10
72096;BME280;59968;51.084;16.748;2023-09-30T07:10:55;100844.11;;;18.00;69.22
72096;BME280;59968;51.084;16.748;2023-09-30T07:13:26;100851.17;;;17.99;69.13
72096;BME280;59968;51.084;16.748;2023-09-30T07:15:56;100857.23;;;18.00;69.33
72096;BME280;59968;51.084;16.748;2023-09-30T07:18:27;100864.45;;;18.03;69.55
72096;BME280;59968;51.084;16.748;2023-09-30T07:20:58;100868.02;;;18.07;69.63
72096;BME280;59968;51.084;16.748;2023-09-30T07:23:30;100874.58;;;18.11;69.65
72096;BME280;59968;51.084;16.748;2023-09-30T07:26:01;100881.27;;;18.14;70.02
72096;BME280;59968;51.084;16.748;2023-09-30T07:28:35;100879.59;;;18.20;70.31
72096;BME280;59968;51.084;16.748;2023-09-30T07:31:03;100878.77;;;18.24;70.42
72096;BME280;59968;51.084;16.748;2023-09-30T07:33:32;100883.00;;;18.27;70.48
72096;BME280;59968;51.084;16.748;2023-09-30T07:36:01;100890.10;;;18.31;70.34
72096;BME280;59968;51.084;16.748;2023-09-30T07:38:30;100893.68;;;18.34;70.47
72096;BME280;59968;51.084;16.748;2023-09-30T07:41:01;100891.61;;;18.32;70.38
72096;BME280;59968;51.084;16.748;2023-09-30T07:43:31;100881.30;;;18.25;70.68
72096;BME280;59968;51.084;16.748;2023-09-30T07:46:05;100890.63;;;18.29;70.81
72096;BME280;59968;51.084;16.748;2023-09-30T07:48:36;100887.17;;;18.26;71.21
72096;BME280;59968;51.084;16.748;2023-09-30T07:51:05;100890.65;;;18.23;71.67
72096;BME280;59968;51.084;16.748;2023-09-30T07:53:39;100889.05;;;18.20;72.29
72096;BME280;59968;51.084;16.748;2023-09-30T07:56:11;100892.50;;;18.16;72.45
72096;BME280;59968;51.084;16.748;2023-09-30T07:58:40;100897.98;;;18.14;72.72
72096;BME280;59968;51.084;16.748;2023-09-30T08:01:08;100901.63;;;18.09;72.80
72096;BME280;59968;51.084;16.748;2023-09-30T08:03:37;100907.59;;;18.02;73.03
72096;BME280;59968;51.084;16.748;2023-09-30T08:06:07;100906.86;;;17.99;72.90
72096;BME280;59968;51.084;16.748;2023-09-30T08:08:39;100904.56;;;17.99;72.89
72096;BME280;59968;51.084;16.748;2023-09-30T08:11:08;100914.39;;;17.97;72.90
72096;BME280;59968;51.084;16.748;2023-09-30T08:13:37;100919.85;;;17.96;72.83
72096;BME280;59968;51.084;16.748;2023-09-30T08:16:06;100922.02;;;17.97;72.84
72096;BME280;59968;51.084;16.748;2023-09-30T08:18:35;100929.58;;;17.97;72.64
72096;BME280;59968;51.084;16.748;2023-09-30T08:21:04;100933.59;;;17.99;72.59
72096;BME280;59968;51.084;16.748;2023-09-30T08:23:33;100935.17;;;18.13;72.65
72096;BME280;59968;51.084;16.748;2023-09-30T08:26:02;100939.48;;;18.21;72.11
72096;BME280;59968;51.084;16.748;2023-09-30T08:28:32;100943.41;;;18.25;71.84
72096;BME280;59968;51.084;16.748;2023-09-30T08:31:04;100945.92;;;18.37;71.20
72096;BME280;59968;51.084;16.748;2023-09-30T08:33:33;100951.45;;;18.51;71.06
72096;BME280;59968;51.084;16.748;2023-09-30T08:36:05;100958.95;;;18.69;70.19
72096;BME280;59968;51.084;16.748;2023-09-30T08:38:39;100960.46;;;18.75;69.24
72096;BME280;59968;51.084;16.748;2023-09-30T08:41:08;100968.52;;;18.85;68.61
72096;BME280;59968;51.084;16.748;2023-09-30T08:43:39;100972.23;;;18.86;67.69
72096;BME280;59968;51.084;16.748;2023-09-30T08:46:08;100961.17;;;18.75;67.63
72096;BME280;59968;51.084;16.748;2023-09-30T08:48:38;100978.55;;;18.86;64.26
72096;BME280;59968;51.084;16.748;2023-09-30T08:51:07;100982.67;;;18.94;62.95
72096;BME280;59968;51.084;16.748;2023-09-30T08:53:36;100987.01;;;19.01;61.47
72096;BME280;59968;51.084;16.748;2023-09-30T08:56:07;100980.14;;;19.07;62.00
72096;BME280;59968;51.084;16.748;2023-09-30T08:58:39;100992.86;;;19.20;60.68
72096;BME280;59968;51.084;16.748;2023-09-30T09:01:10;100997.77;;;19.21;61.74
72096;BME280;59968;51.084;16.748;2023-09-30T09:03:39;100997.48;;;19.20;62.12
72096;BME280;59968;51.084;16.748;2023-09-30T09:06:09;100985.61;;;19.09;62.09
72096;BME280;59968;51.084;16.748;2023-09-30T09:08:38;100997.91;;;19.27;63.06
72096;BME280;59968;51.084;16.748;2023-09-30T09:11:10;101002.39;;;19.38;62.93
72096;BME280;59968;51.084;16.748;2023-09-30T09:13:52;101007.70;;;19.32;62.46
72096;BME280;59968;51.084;16.748;2023-09-30T09:16:24;101011.19;;;19.23;62.51
72096;BME280;59968;51.084;16.748;2023-09-30T09:18:55;101015.45;;;19.19;61.95
72096;BME280;59968;51.084;16.748;2023-09-30T09:21:25;101014.11;;;19.12;61.86
72096;BME280;59968;51.084;16.748;2023-09-30T09:24:06;101011.34;;;19.13;61.75
72096;BME280;59968;51.084;16.748;2023-09-30T09:26:36;101014.08;;;19.19;60.57
72096;BME280;59968;51.084;16.748;2023-09-30T09:29:06;101005.47;;;19.24;60.88
72096;BME280;59968;51.084;16.748;2023-09-30T09:31:36;101004.70;;;19.30;60.21
72096;BME280;59968;51.084;16.748;2023-09-30T09:34:13;101013.06;;;19.27;58.20
72096;BME280;59968;51.084;16.748;2023-09-30T09:36:44;101011.34;;;19.30;58.53
72096;BME280;59968;51.084;16.748;2023-09-30T09:39:14;101010.56;;;19.41;57.66
72096;BME280;59968;51.084;16.748;2023-09-30T09:41:50;101014.92;;;19.51;56.57
72096;BME280;59968;51.084;16.748;2023-09-30T09:44:31;101015.69;;;19.51;56.03
72096;BME280;59968;51.084;16.748;2023-09-30T09:47:07;101017.06;;;19.49;55.11
72096;BME280;59968;51.084;16.748;2023-09-30T09:49:41;101019.11;;;19.47;54.53
72096;BME280;59968;51.084;16.748;2023-09-30T09:52:11;101015.91;;;19.52;55.13
72096;BME280;59968;51.084;16.748;2023-09-30T09:54:48;101015.20;;;19.58;55.04
72096;BME280;59968;51.084;16.748;2023-09-30T09:57:20;101017.26;;;19.61;54.63
72096;BME280;59968;51.084;16.748;2023-09-30T09:59:51;101008.45;;;19.62;53.91
72096;BME280;59968;51.084;16.748;2023-09-30T10:02:25;101010.69;;;19.66;53.19
72096;BME280;59968;51.084;16.748;2023-09-30T10:05:02;101005.55;;;19.67;52.06
72096;BME280;59968;51.084;16.748;2023-09-30T10:10:19;101011.68;;;19.56;52.63
72096;BME280;59968;51.084;16.748;2023-09-30T10:12:49;101012.32;;;19.54;52.96
72096;BME280;59968;51.084;16.748;2023-09-30T10:18:04;101011.23;;;19.54;52.65
72096;BME280;59968;51.084;16.748;2023-09-30T10:20:41;101020.11;;;19.54;52.64
72096;BME280;59968;51.084;16.748;2023-09-30T10:25:47;101034.26;;;19.41;51.82
72096;BME280;59968;51.084;16.748;2023-09-30T10:31:21;101042.23;;;19.45;51.78
72096;BME280;59968;51.084;16.748;2023-09-30T10:39:02;101031.61;;;19.64;52.25
72096;BME280;59968;51.084;16.748;2023-09-30T10:47:34;101026.58;;;19.73;51.03
72096;BME280;59968;51.084;16.748;2023-09-30T10:49:52;101026.78;;;19.71;51.69
72096;BME280;59968;51.084;16.748;2023-09-30T10:52:23;101030.37;;;19.70;51.92
72096;BME280;59968;51.084;16.748;2023-09-30T10:55:02;101038.85;;;19.69;52.35
72096;BME280;59968;51.084;16.748;2023-09-30T10:57:32;101045.02;;;19.67;52.70
72096;BME280;59968;51.084;16.748;2023-09-30T11:02:51;101004.98;;;19.36;53.30
72096;BME280;59968;51.084;16.748;2023-09-30T11:05:22;101052.84;;;19.76;52.67
72096;BME280;59968;51.084;16.748;2023-09-30T11:08:15;101053.99;;;19.82;52.36
72096;BME280;59968;51.084;16.748;2023-09-30T11:10:49;101044.65;;;19.83;52.60
72096;BME280;59968;51.084;16.748;2023-09-30T11:13:19;101042.88;;;19.85;51.82
72096;BME280;59968;51.084;16.748;2023-09-30T11:15:59;101041.42;;;19.85;52.59
72096;BME280;59968;51.084;16.748;2023-09-30T11:18:30;101037.83;;;19.95;52.23
72096;BME280;59968;51.084;16.748;2023-09-30T11:21:08;101038.91;;;20.06;52.49
72096;BME280;59968;51.084;16.748;2023-09-30T11:23:40;101033.13;;;20.17;51.05
72096;BME280;59968;51.084;16.748;2023-09-30T11:26:09;101028.69;;;20.18;50.05
72096;BME280;59968;51.084;16.748;2023-09-30T11:28:44;101032.47;;;20.19;50.42
72096;BME280;59968;51.084;16.748;2023-09-30T11:31:13;101036.32;;;20.29;50.95
72096;BME280;59968;51.084;16.748;2023-09-30T11:33:51;101034.17;;;20.36;50.55
72096;BME280;59968;51.084;16.748;2023-09-30T11:36:22;101033.05;;;20.45;50.30
72096;BME280;59968;51.084;16.748;2023-09-30T11:38:53;101031.02;;;20.44;49.70
72096;BME280;59968;51.084;16.748;2023-09-30T11:41:32;101030.30;;;20.37;50.52
72096;BME280;59968;51.084;16.748;2023-09-30T11:44:06;101032.45;;;20.33;50.56
72096;BME280;59968;51.084;16.748;2023-09-30T11:49:45;101035.56;;;20.36;50.02
72096;BME280;59968;51.084;16.748;2023-09-30T11:52:26;101035.69;;;20.28;48.79
72096;BME280;59968;51.084;16.748;2023-09-30T11:55:00;101034.16;;;20.22;49.62
72096;BME280;59968;51.084;16.748;2023-09-30T11:57:33;101034.52;;;20.22;49.09
72096;BME280;59968;51.084;16.748;2023-09-30T12:00:04;101026.95;;;20.12;48.74
72096;BME280;59968;51.084;16.748;2023-09-30T12:02:50;101035.45;;;20.13;49.36
72096;BME280;59968;51.084;16.748;2023-09-30T12:05:23;101044.71;;;20.10;49.29
72096;BME280;59968;51.084;16.748;2023-09-30T12:07:52;101037.45;;;20.08;50.27
72096;BME280;59968;51.084;16.748;2023-09-30T12:10:23;101039.35;;;20.08;50.51
72096;BME280;59968;51.084;16.748;2023-09-30T12:12:52;101030.48;;;20.12;50.72
72096;BME280;59968;51.084;16.748;2023-09-30T12:15:21;101029.42;;;20.20;50.53
72096;BME280;59968;51.084;16.748;2023-09-30T12:17:51;101027.88;;;20.21;50.58
72096;BME280;59968;51.084;16.748;2023-09-30T12:20:21;101026.65;;;20.24;49.70
72096;BME280;59968;51.084;16.748;2023-09-30T12:22:53;101023.33;;;20.24;49.11
72096;BME280;59968;51.084;16.748;2023-09-30T12:25:24;101029.45;;;20.26;48.47
72096;BME280;59968;51.084;16.748;2023-09-30T12:27:57;101028.63;;;20.29;48.40
72096;BME280;59968;51.084;16.748;2023-09-30T12:30:28;101029.52;;;20.34;47.90
72096;BME280;59968;51.084;16.748;2023-09-30T12:33:01;101034.61;;;20.39;47.12
72096;BME280;59968;51.084;16.748;2023-09-30T12:35:31;101034.23;;;20.35;46.84
72096;BME280;59968;51.084;16.748;2023-09-30T12:38:01;101033.64;;;20.38;47.20
72096;BME280;59968;51.084;16.748;2023-09-30T13:05:45;101019.11;;;20.57;47.49
72096;BME280;59968;51.084;16.748;2023-09-30T13:08:14;101022.01;;;20.86;46.66
72096;BME280;59968;51.084;16.748;2023-09-30T13:10:43;101017.02;;;20.87;47.12
72096;BME280;59968;51.084;16.748;2023-09-30T13:13:13;101018.19;;;20.85;46.24
72096;BME280;59968;51.084;16.748;2023-09-30T13:15:42;101022.80;;;20.75;46.80
72096;BME280;59968;51.084;16.748;2023-09-30T13:18:11;101026.41;;;20.57;46.87
72096;BME280;59968;51.084;16.748;2023-09-30T13:20:41;101029.71;;;20.42;46.39
72096;BME280;59968;51.084;16.748;2023-09-30T13:23:10;101032.95;;;20.32;46.84
72096;BME280;59968;51.084;16.748;2023-09-30T13:25:38;101029.54;;;20.27;47.55
72096;BME280;59968;51.084;16.748;2023-09-30T13:28:07;101030.64;;;20.24;47.54
72096;BME280;59968;51.084;16.748;2023-09-30T13:30:37;101031.30;;;20.16;47.50
72096;BME280;59968;51.084;16.748;2023-09-30T13:33:07;101032.89;;;20.03;47.44
72096;BME280;59968;51.084;16.748;2023-09-30T13:35:36;101033.45;;;19.89;47.29
72096;BME280;59968;51.084;16.748;2023-09-30T13:38:05;101029.39;;;19.79;47.46
72096;BME280;59968;51.084;16.748;2023-09-30T13:40:34;101027.05;;;19.68;48.35
72096;BME280;59968;51.084;16.748;2023-09-30T13:43:05;101029.22;;;19.64;48.54
72096;BME280;59968;51.084;16.748;2023-09-30T13:45:34;101025.66;;;19.57;48.34
72096;BME280;59968;51.084;16.748;2023-09-30T13:48:03;101026.48;;;19.57;48.62
72096;BME280;59968;51.084;16.748;2023-09-30T13:50:34;101021.90;;;19.59;48.81